ADDS METAR Data INFO
IDs: Format: Raw Decoded Include TAF

Data at: 0855 UTC 19 Jun 2018

KELK 190835Z AUTO 16008KT 10SM CLR 24/19 A2996 RMK AO2 T02410192
KELK 190815Z AUTO 16008KT 10SM CLR 24/19 A2996 RMK AO2 T02430191
KELK 190755Z AUTO 16008KT 10SM CLR 25/19 A2996 RMK AO2 T02450190
KELK 190735Z AUTO 16009G14KT 10SM CLR 25/19 A2996 RMK AO2 T02460189
KELK 190715Z AUTO 16010KT 10SM CLR 25/19 A2996 RMK AO2 T02480188
KELK 190655Z AUTO 16009KT 10SM CLR 25/19 A2996 RMK AO2 T02500187
KELK 190635Z AUTO 16008KT 10SM CLR 25/19 A2996 RMK AO2 T02500186
KELK 190615Z AUTO 16008KT 10SM CLR 25/19 A2997 RMK AO2 T02530185
KELK 190555Z AUTO 16009G14KT 10SM CLR 26/19 A2997 RMK AO2 T02560185 10305 20256 403430230
KELK 190535Z AUTO 16010KT 10SM CLR 26/19 A2997 RMK AO2 T02600186
KELK 190515Z AUTO 16007KT 10SM CLR 26/19 A2998 RMK AO2 T02620186
KELK 190455Z AUTO 16010G14KT 10SM CLR 27/19 A2998 RMK AO2 T02650186
KELK 190435Z AUTO 15009G14KT 10SM CLR 27/19 A2998 RMK AO2 T02650186
KELK 190415Z AUTO 15010G15KT 10SM CLR 27/19 A2998 RMK AO2 T02700187
KELK 190355Z AUTO 14010KT 10SM CLR 27/19 A2998 RMK AO2 T02720187
KELK 190335Z AUTO 14009KT 10SM CLR 28/19 A2998 RMK AO2 T02750187
KELK 190315Z AUTO 15009KT 10SM CLR 28/19 A2997 RMK AO2 T02760187
KELK 190255Z AUTO 15010KT 10SM CLR 28/19 A2997 RMK AO2 T02800185
KELK 190235Z AUTO 15009KT 10SM CLR 28/19 A2996 RMK AO2 T02820185
KELK 190215Z AUTO 15011G15KT 10SM CLR 29/19 A2996 RMK AO2 T02860186
KELK 190155Z AUTO 16009G15KT 10SM CLR 29/19 A2996 RMK AO2 T02890188
KELK 190135Z AUTO 16013G19KT 10SM CLR 29/19 A2995 RMK AO2 T02910190
KELK 190115Z AUTO 15014KT 10SM CLR 29/19 A2995 RMK AO2 T02940190
KELK 190055Z AUTO 16012G17KT 10SM CLR 30/19 A2994 RMK AO2 T02960185
KELK 190035Z AUTO 16013G19KT 10SM CLR 30/19 A2994 RMK AO2 T02980190
KELK 190015Z AUTO 18014G19KT 10SM SCT065 30/19 A2995 RMK AO2 T03010190
KELK 182355Z AUTO 16016KT 10SM SCT065 SCT075 31/19 A2995 RMK AO2 LTG DSNT W T03060188 10343 20305
KELK 182335Z AUTO 16012KT 10SM SCT065 BKN075 31/19 A2993 RMK AO2 LTG DSNT W T03100186
KELK 182315Z AUTO 15012G22KT 10SM VCTS SCT055 SCT065 31/19 A2993 RMK AO2 LTG DSNT W T03120187
KELK 182255Z AUTO 15014G20KT 10SM SCT060 SCT085 33/19 A2991 RMK AO2 LTG DSNT W T03310190
KELK 182235Z AUTO 14016G21KT 10SM BKN060 BKN070 33/19 A2992 RMK AO2 LTG DSNT W T03250186
KELK 182215Z AUTO 14010G18KT 10SM BKN060 BKN070 BKN080 33/18 A2992 RMK AO2 LTG DSNT W T03290182
KELK 182155Z AUTO 15014G19KT 10SM BKN060 BKN070 BKN080 34/19 A2993 RMK AO2 LTG DSNT W AND NW T03380191
KELK 182135Z AUTO 15010G19KT 10SM SCT060 BKN070 33/19 A2993 RMK AO2 LTG DSNT W T03300187
KELK 182115Z AUTO 16009KT 10SM SCT060 SCT070 34/19 A2993 RMK AO2 LTG DSNT S T03380191
KELK 182055Z AUTO 15015G19KT 10SM SCT050 BKN070 BKN080 33/20 A2994 RMK AO2 T03340197
KELK 182035Z AUTO 16011G16KT 120V180 10SM SCT050 BKN060 BKN100 33/20 A2995 RMK AO2 T03280198
KELK 182015Z AUTO 14012G19KT 10SM BKN050 BKN060 33/20 A2996 RMK AO2 T03310197
KELK 181955Z AUTO 21011G19KT 10SM SCT050 34/20 A2996 RMK AO2 T03350198
KELK 181935Z AUTO 17010G17KT 10SM SCT048 33/20 A2997 RMK AO2 T03300201
KELK 181915Z AUTO 16008G15KT 10SM BKN046 BKN050 34/21 A2998 RMK AO2 T03370208
KELK 181855Z AUTO 18011G17KT 10SM BKN045 32/21 A2998 RMK AO2 T03220205
KELK 181835Z AUTO 17013G16KT 10SM BKN041 BKN100 32/20 A2999 RMK AO2 T03210204
KELK 181815Z AUTO 17012G18KT 10SM SCT039 BKN100 32/21 A3000 RMK AO2 T03180207
KELK 181755Z AUTO 16011G17KT 10SM SCT039 31/20 A3000 RMK AO2 T03100203 10313 20231
KELK 181735Z AUTO 16013G16KT 10SM SCT035 SCT041 31/20 A3001 RMK AO2 T03110204
KELK 181715Z AUTO 16014G20KT 10SM SCT035 SCT043 31/21 A3001 RMK AO2 T03090209
KELK 181655Z AUTO 17014G18KT 10SM SCT033 31/21 A3001 RMK AO2 T03050209
KELK 181635Z AUTO 16011G14KT 10SM CLR 30/21 A3002 RMK AO2 T02980206
KELK 181615Z AUTO 17014G18KT 10SM CLR 30/21 A3001 RMK AO2 T02970207
KELK 181555Z AUTO 17011G17KT 10SM SCT029 29/21 A3001 RMK AO2 T02920208
KELK 181535Z AUTO 17012G16KT 10SM SCT025 29/21 A3001 RMK AO2 T02880207
KELK 181515Z AUTO 16013KT 10SM SCT025 28/21 A3002 RMK AO2 T02810208
KELK 181455Z AUTO 18012G18KT 10SM CLR 28/21 A3001 RMK AO2 T02770205
KELK 181435Z AUTO 17010G18KT 10SM CLR 28/21 A3002 RMK AO2 T02750206
KELK 181415Z AUTO 19014G19KT 10SM CLR 27/20 A3001 RMK AO2 T02680204
KELK 181355Z AUTO 18014G17KT 10SM CLR 26/20 A3001 RMK AO2 T02590204
KELK 181335Z AUTO 19015KT 10SM CLR 25/20 A3000 RMK AO2 T02520202
KELK 181315Z AUTO 19015G19KT 10SM CLR 25/20 A3000 RMK AO2 T02470201
KELK 181255Z AUTO 17013KT 10SM CLR 24/20 A2999 RMK AO2 T02420200
KELK 181235Z AUTO 17012G17KT 10SM CLR 24/20 A2999 RMK AO2 T02380199
KELK 181215Z AUTO 16013KT 10SM CLR 23/20 A2998 RMK AO2 T02330197
KELK 181155Z AUTO 16013KT 10SM CLR 23/20 A2998 RMK AO2 T02300195 10265 20230
KELK 181135Z AUTO 16011KT 10SM CLR 23/20 A2998 RMK AO2 T02300195
KELK 181115Z AUTO 16010KT 10SM CLR 23/20 A2998 RMK AO2 T02310195
KELK 181055Z AUTO 16010KT 10SM CLR 23/20 A2998 RMK AO2 T02320195
KELK 181035Z AUTO 16008KT 10SM CLR 23/20 A2998 RMK AO2 T02330195
KELK 181015Z AUTO 17008KT 10SM CLR 24/20 A2998 RMK AO2 T02350196
KELK 180955Z AUTO 17007KT 10SM CLR 24/20 A2998 RMK AO2 T02360196
KELK 180935Z AUTO 18007KT 10SM CLR 24/20 A2997 RMK AO2 T02380195
KELK 180915Z AUTO 18007KT 10SM CLR 24/20 A2997 RMK AO2 T02400195
KELK 180855Z AUTO 18006KT 10SM CLR 24/19 A2997 RMK AO2 T02410193
KELK 180835Z AUTO 17007KT 10SM CLR 25/19 A2996 RMK AO2 T02450192
KELK 180815Z AUTO 17007KT 10SM CLR 25/19 A2996 RMK AO2 T02480191
KELK 180755Z AUTO 17008KT 10SM CLR 25/19 A2996 RMK AO2 T02500191
KELK 180735Z AUTO 17010KT 10SM CLR 25/19 A2996 RMK AO2 T02530191
KELK 180715Z AUTO 17010G15KT 10SM CLR 26/19 A2996 RMK AO2 T02550191
KELK 180655Z AUTO 16009KT 10SM CLR 26/19 A2996 RMK AO2 T02560190
KELK 180635Z AUTO 16009KT 10SM CLR 26/19 A2996 RMK AO2 T02580190
KELK 180615Z AUTO 16009G14KT 10SM CLR 26/19 A2996 RMK AO2 T02610191
KELK 180555Z AUTO 16010G14KT 10SM CLR 27/19 A2996 RMK AO2 T02650190 10323 20265 403390235
KELK 180535Z AUTO 16011G17KT 10SM CLR 27/19 A2995 RMK AO2 LTG DSNT W T02680190
KELK 180515Z AUTO 16011G19KT 10SM CLR 27/19 A2995 RMK AO2 T02700188
KELK 180455Z AUTO 15013G17KT 10SM CLR 27/19 A2995 RMK AO2 T02720187
KELK 180435Z AUTO 15013G18KT 10SM CLR 28/19 A2995 RMK AO2 T02750187
KELK 180415Z AUTO 15010KT 10SM CLR 28/19 A2995 RMK AO2 T02780186
KELK 180355Z AUTO 16012G16KT 10SM CLR 28/18 A2994 RMK AO2 T02800183
KELK 180335Z AUTO 15011G17KT 10SM CLR 28/18 A2994 RMK AO2 T02820180
KELK 180315Z AUTO 15012G19KT 10SM CLR 29/18 A2993 RMK AO2 T02860179
KELK 180255Z AUTO 15012G19KT 10SM SCT065 29/18 A2992 RMK AO2 T02880177
KELK 180235Z AUTO 16011G19KT 10SM BKN065 29/18 A2992 RMK AO2 T02920175
KELK 180215Z AUTO 16011G16KT 10SM OVC060 28/18 A2992 RMK AO2 T02820182
KELK 180155Z AUTO 21005KT 10SM BKN060 28/19 A2992 RMK AO2 T02820191
KELK 180135Z AUTO 15013G18KT 10SM CLR 30/17 A2992 RMK AO2 T03010170
KELK 180115Z AUTO 16015G19KT 10SM CLR 31/17 A2992 RMK AO2 T03050170
KELK 180055Z AUTO 16011G19KT 10SM CLR 31/17 A2992 RMK AO2 T03090168
KELK 180035Z AUTO 17018G24KT 10SM CLR 32/17 A2991 RMK AO2 T03170170
KELK 180015Z AUTO 16018G24KT 10SM CLR 32/17 A2990 RMK AO2 T03200168
KELK 172355Z AUTO 18016G23KT 10SM CLR 32/17 A2990 RMK AO2 LTG DSNT W T03240169 10339 20319
KELK 172335Z AUTO 16016G22KT 10SM CLR 33/17 A2990 RMK AO2 LTG DSNT SW T03260167
KELK 172315Z AUTO 15021G25KT 10SM SCT070 33/17 A2989 RMK AO2 LTG DSNT SW T03270170
KELK 172255Z AUTO 15016G24KT 10SM SCT065 BKN075 33/17 A2990 RMK AO2 T03250165
KELK 172235Z AUTO 18015G24KT 10SM SCT065 BKN075 32/16 A2991 RMK AO2 T03230164
KELK 172215Z AUTO 17017G25KT 10SM BKN065 33/17 A2990 RMK AO2 LTG DSNT NW T03300165
KELK 172155Z AUTO 16019G24KT 10SM BKN065 34/17 A2991 RMK AO2 T03370167
KELK 172135Z AUTO 15018G27KT 10SM BKN065 33/17 A2991 RMK AO2 T03330166
KELK 172115Z AUTO 15016G27KT 10SM BKN065 33/17 A2990 RMK AO2 T03300171